KBUF/BUF METAR and TAF weather

Enter ICAO airport designator
Station Type Date Time Source
KBUF METAR 2019/10/21 04:54 UTC NOAA

KBUF 210454Z 13003KT 10SM CLR 08/06 A3000 RMK AO2 SLP162 T00780056 401890044


Station Type Date Time Source
KBUF Decoded METAR 2019/10/21 04:54 UTC NOAA

GREATER BUFFALO INTERNATIONAL AIRPORT , NY, United States (KBUF) 42-56N 078-44W 225M
Oct 21, 2019 - 12:54 AM EDT / 2019.10.21 0454 UTC
Wind: from the SE (130 degrees) at 3 MPH (3 KT):0
Visibility: 10 mile(s):0
Sky conditions: clear
Temperature: 46.0 F (7.8 C)
Dew Point: 42.1 F (5.6 C)
Relative Humidity: 85%
Pressure (altimeter): 30 in. Hg (1015 hPa)
ob: KBUF 210454Z 13003KT 10SM CLR 08/06 A3000 RMK AO2 SLP162 T00780056 401890044
cycle: 5

Station Type Date Time Source
KBUF TAF 2019/10/21 03:58 UTC NOAA

TAF
AMD KBUF 210258Z 2103/2124 VRB03KT P6SM SKC
FM211300 10004KT P6SM SCT250
FM212100 11008KT P6SM BKN200

Example: see airport list